Terminal Aerodrome Forecast
Issued by NWS Springfield, MO

Home | Current Version | Previous Version | Text Only | Print | Product List | Glossary On
Versions: 1 2 3 4 5 6 7 8 9 10 11 12 13 14
000
FTUS43 KSGF 202300
TAFSGF
TAF
KSGF 202337Z 2100/2124 06008KT P6SM FEW250
     FM210500 11010KT P6SM SCT030 BKN200
     FM211200 13014KT P6SM BKN020
     FM211500 14017G23KT P6SM VCSH BKN020 OVC040 PROB30 2115/2120
      5SM -DZ
     FM212000 14015G21KT P6SM VCSH BKN015 OVC040=

USA.gov is the U.S. government's official web portal to all federal, state and local government web resources and services.